sensor_id;sensor_type;location;lat;lon;timestamp;pressure;altitude;pressure_sealevel;temperature;humidity
65054;BME280;51639;47.828;35.038;2022-09-11T00:06:55;100392.78;;;14.78;43.94
65054;BME280;51639;47.828;35.038;2022-09-11T00:21:57;100370.28;;;14.61;45.06
65054;BME280;51639;47.828;35.038;2022-09-11T00:36:59;100329.19;;;14.39;46.32
65054;BME280;51639;47.828;35.038;2022-09-11T00:52:17;100337.28;;;14.30;47.61
65054;BME280;51639;47.828;35.038;2022-09-11T01:07:23;100344.16;;;14.09;48.62
65054;BME280;51639;47.828;35.038;2022-09-11T01:38:00;100305.28;;;13.92;50.51
65054;BME280;51639;47.828;35.038;2022-09-11T01:53:04;100263.69;;;13.88;51.56
65054;BME280;51639;47.828;35.038;2022-09-11T02:08:17;100252.13;;;13.84;52.43
65054;BME280;51639;47.828;35.038;2022-09-11T02:23:20;100237.16;;;13.76;52.26
65054;BME280;51639;47.828;35.038;2022-09-11T02:38:33;100236.16;;;13.70;53.10
65054;BME280;51639;47.828;35.038;2022-09-11T02:54:02;100212.19;;;13.65;53.46
65054;BME280;51639;47.828;35.038;2022-09-11T03:09:06;100211.41;;;13.52;54.76
65054;BME280;51639;47.828;35.038;2022-09-11T03:24:08;100215.22;;;13.54;54.61
65054;BME280;51639;47.828;35.038;2022-09-11T03:39:10;100192.75;;;13.63;54.19
65054;BME280;51639;47.828;35.038;2022-09-11T03:54:12;100178.59;;;13.68;54.00
65054;BME280;51639;47.828;35.038;2022-09-11T04:09:16;100155.22;;;13.67;54.00
65054;BME280;51639;47.828;35.038;2022-09-11T04:24:20;100156.75;;;13.68;53.92
65054;BME280;51639;47.828;35.038;2022-09-11T04:39:22;100163.09;;;13.65;54.20
65054;BME280;51639;47.828;35.038;2022-09-11T04:54:24;100164.38;;;13.73;53.77
65054;BME280;51639;47.828;35.038;2022-09-11T05:09:26;100169.59;;;13.80;53.66
65054;BME280;51639;47.828;35.038;2022-09-11T05:24:28;100152.16;;;13.90;53.75
65054;BME280;51639;47.828;35.038;2022-09-11T05:39:30;100151.22;;;14.06;53.59
65054;BME280;51639;47.828;35.038;2022-09-11T05:54:32;100109.31;;;14.34;53.36
65054;BME280;51639;47.828;35.038;2022-09-11T06:09:34;100097.56;;;14.68;52.96
65054;BME280;51639;47.828;35.038;2022-09-11T06:24:36;100074.88;;;14.81;52.45
65054;BME280;51639;47.828;35.038;2022-09-11T06:39:38;100080.84;;;14.88;53.13
65054;BME280;51639;47.828;35.038;2022-09-11T06:54:40;100077.41;;;14.97;53.17
65054;BME280;51639;47.828;35.038;2022-09-11T07:09:42;100083.81;;;15.12;53.46
65054;BME280;51639;47.828;35.038;2022-09-11T07:24:44;100081.50;;;15.42;54.25
65054;BME280;51639;47.828;35.038;2022-09-11T07:39:47;100056.38;;;15.74;54.12
65054;BME280;51639;47.828;35.038;2022-09-11T07:54:49;100071.28;;;16.10;54.68
65054;BME280;51639;47.828;35.038;2022-09-11T08:09:51;100053.19;;;16.30;54.12
65054;BME280;51639;47.828;35.038;2022-09-11T08:25:13;100040.25;;;16.40;53.94
65054;BME280;51639;47.828;35.038;2022-09-11T08:40:15;100027.44;;;16.64;54.28
65054;BME280;51639;47.828;35.038;2022-09-11T08:55:31;100019.22;;;16.46;58.78
65054;BME280;51639;47.828;35.038;2022-09-11T09:10:49;100004.31;;;16.38;66.58
65054;BME280;51639;47.828;35.038;2022-09-11T09:25:54;99988.19;;;16.40;72.21
65054;BME280;51639;47.828;35.038;2022-09-11T09:56:23;99951.94;;;17.20;71.16
65054;BME280;51639;47.828;35.038;2022-09-11T10:11:29;99914.47;;;17.56;65.37
65054;BME280;51639;47.828;35.038;2022-09-11T10:41:33;99880.16;;;18.54;61.19
65054;BME280;51639;47.828;35.038;2022-09-11T10:56:43;99852.41;;;19.07;59.38
65054;BME280;51639;47.828;35.038;2022-09-11T11:42:57;99835.84;;;22.00;43.32
65054;BME280;51639;47.828;35.038;2022-09-11T12:13:10;99844.06;;;21.50;42.98
65054;BME280;51639;47.828;35.038;2022-09-11T12:28:24;99829.81;;;21.63;42.61
65054;BME280;51639;47.828;35.038;2022-09-11T12:43:50;99810.16;;;21.27;42.65
65054;BME280;51639;47.828;35.038;2022-09-11T12:59:24;99784.56;;;21.32;42.50
65054;BME280;51639;47.828;35.038;2022-09-11T13:29:31;99783.06;;;20.61;47.60
65054;BME280;51639;47.828;35.038;2022-09-11T13:44:41;99772.09;;;20.24;48.96
65054;BME280;51639;47.828;35.038;2022-09-11T13:59:46;99779.84;;;20.20;49.41
65054;BME280;51639;47.828;35.038;2022-09-11T14:14:52;99768.72;;;20.08;50.06
65054;BME280;51639;47.828;35.038;2022-09-11T14:29:55;99793.69;;;19.94;50.37
65054;BME280;51639;47.828;35.038;2022-09-11T14:44:57;99766.63;;;19.61;50.74
65054;BME280;51639;47.828;35.038;2022-09-11T14:59:59;99733.63;;;19.35;50.77
65054;BME280;51639;47.828;35.038;2022-09-11T15:15:02;99733.19;;;19.16;50.14
65054;BME280;51639;47.828;35.038;2022-09-11T15:30:05;99724.97;;;18.96;50.84
65054;BME280;51639;47.828;35.038;2022-09-11T15:45:08;99719.44;;;18.70;51.55
65054;BME280;51639;47.828;35.038;2022-09-11T16:00:10;99703.44;;;18.48;52.36
65054;BME280;51639;47.828;35.038;2022-09-11T16:15:12;99705.91;;;18.26;52.96
65054;BME280;51639;47.828;35.038;2022-09-11T16:30:15;99722.16;;;18.09;53.66
65054;BME280;51639;47.828;35.038;2022-09-11T16:45:36;99719.72;;;17.96;54.23
65054;BME280;51639;47.828;35.038;2022-09-11T17:00:40;99718.84;;;17.85;55.43
65054;BME280;51639;47.828;35.038;2022-09-11T17:15:43;99720.91;;;17.75;56.07
65054;BME280;51639;47.828;35.038;2022-09-11T17:30:46;99694.84;;;17.65;56.67
65054;BME280;51639;47.828;35.038;2022-09-11T17:45:47;99693.47;;;17.60;56.92
65054;BME280;51639;47.828;35.038;2022-09-11T18:00:53;99685.25;;;17.60;57.19
65054;BME280;51639;47.828;35.038;2022-09-11T18:15:54;99692.16;;;17.56;57.84
65054;BME280;51639;47.828;35.038;2022-09-11T18:31:01;99683.25;;;17.61;58.64
65054;BME280;51639;47.828;35.038;2022-09-11T18:46:04;99663.19;;;17.55;58.87
65054;BME280;51639;47.828;35.038;2022-09-11T19:01:11;99648.09;;;17.45;59.80
65054;BME280;51639;47.828;35.038;2022-09-11T19:16:16;99650.00;;;17.38;60.56
65054;BME280;51639;47.828;35.038;2022-09-11T19:31:19;99624.00;;;17.04;62.49
65054;BME280;51639;47.828;35.038;2022-09-11T19:46:25;99602.38;;;16.92;64.24
65054;BME280;51639;47.828;35.038;2022-09-11T20:01:28;99577.22;;;16.79;64.26
65054;BME280;51639;47.828;35.038;2022-09-11T20:16:31;99576.47;;;16.63;64.26
65054;BME280;51639;47.828;35.038;2022-09-11T20:31:36;99569.84;;;16.85;63.98
65054;BME280;51639;47.828;35.038;2022-09-11T20:46:48;99554.16;;;17.00;63.34
65054;BME280;51639;47.828;35.038;2022-09-11T21:01:49;99564.16;;;17.03;63.32
65054;BME280;51639;47.828;35.038;2022-09-11T21:16:51;99561.81;;;16.96;63.93
65054;BME280;51639;47.828;35.038;2022-09-11T21:31:53;99543.78;;;16.75;65.23
65054;BME280;51639;47.828;35.038;2022-09-11T21:46:55;99530.59;;;16.20;68.10
65054;BME280;51639;47.828;35.038;2022-09-11T22:01:57;99536.25;;;16.01;69.18
65054;BME280;51639;47.828;35.038;2022-09-11T22:16:59;99516.56;;;15.88;70.75
65054;BME280;51639;47.828;35.038;2022-09-11T22:32:02;99515.25;;;15.60;71.52
65054;BME280;51639;47.828;35.038;2022-09-11T22:47:04;99505.88;;;15.76;70.87
65054;BME280;51639;47.828;35.038;2022-09-11T23:02:06;99487.72;;;15.63;71.92
65054;BME280;51639;47.828;35.038;2022-09-11T23:17:08;99477.19;;;15.71;71.48
65054;BME280;51639;47.828;35.038;2022-09-11T23:32:10;99479.72;;;15.75;71.77
65054;BME280;51639;47.828;35.038;2022-09-11T23:47:12;99483.25;;;15.90;71.47
